Time;durP1;ratioP1;P1;durP2;ratioP2;P2;SDS_P1;SDS_P2;PMS_P1;PMS_P2;Temp;Humidity;BMP_temperature;BMP_pressure;BME280_temperature;BME280_humidity;BME280_pressure;Samples;Min_cycle;Max_cycle;Signal;HPM_P1;HPM_P2
2022/12/08 00:01:04;;;;;;;4.03;2.27;;;;;;;;;;4991264;28;20420;-68
2022/12/08 00:03:32;;;;;;;4.23;2.27;;;;;;;;;;4957831;28;20558;-68
2022/12/08 00:09:20;;;;;;;5.77;2.40;;;;;;;;;;4991151;28;20982;-68
2022/12/08 00:11:51;;;;;;;2.07;1.10;;;;;;;;;;4991087;28;20478;-68
2022/12/08 00:14:17;;;;;;;5.23;2.37;;;;;;;;;;4973642;28;20448;-68
2022/12/08 00:16:44;;;;;;;4.27;2.50;;;;;;;;;;4990364;28;20522;-68
2022/12/08 00:19:28;;;;;;;4.77;2.90;;;;;;;;;;4991247;28;20427;-68
2022/12/08 00:21:55;;;;;;;2.60;1.93;;;;;;;;;;4973401;28;20467;-68
2022/12/08 00:24:21;;;;;;;2.57;1.70;;;;;;;;;;4973953;28;20799;-68
2022/12/08 00:26:48;;;;;;;5.80;2.53;;;;;;;;;;4992848;28;20432;-68
2022/12/08 00:29:15;;;;;;;4.87;3.07;;;;;;;;;;5012624;28;20807;-68
2022/12/08 00:31:43;;;;;;;4.53;2.43;;;;;;;;;;4995959;28;20475;-68
2022/12/08 00:34:10;;;;;;;3.80;2.33;;;;;;;;;;4992972;28;20850;-68
2022/12/08 00:36:37;;;;;;;5.60;2.87;;;;;;;;;;4992627;28;20443;-68
2022/12/08 00:39:04;;;;;;;5.30;3.07;;;;;;;;;;5010518;28;20437;-68
2022/12/08 00:44:17;;;;;;;4.17;2.67;;;;;;;;;;4992926;28;20447;-68
2022/12/08 00:46:44;;;;;;;4.00;2.83;;;;;;;;;;4992762;28;20555;-69
2022/12/08 00:49:11;;;;;;;6.17;2.70;;;;;;;;;;4980268;28;20490;-68
2022/12/08 00:51:40;;;;;;;6.50;2.90;;;;;;;;;;4990568;28;20468;-68
2022/12/08 00:54:07;;;;;;;5.77;2.57;;;;;;;;;;4990894;28;20442;-68
2022/12/08 00:56:33;;;;;;;3.63;2.17;;;;;;;;;;4990866;28;21357;-68
2022/12/08 00:59:17;;;;;;;5.17;3.00;;;;;;;;;;4975907;28;20484;-68
2022/12/08 01:01:44;;;;;;;3.97;2.20;;;;;;;;;;4990558;28;20433;-69
2022/12/08 01:04:11;;;;;;;3.97;2.23;;;;;;;;;;4957008;28;20448;-68
2022/12/08 01:06:38;;;;;;;8.83;2.93;;;;;;;;;;4990895;28;20490;-68
2022/12/08 01:09:05;;;;;;;3.30;2.37;;;;;;;;;;4990533;28;20525;-68
2022/12/08 01:11:31;;;;;;;6.30;2.60;;;;;;;;;;4990830;28;20475;-68
2022/12/08 01:13:58;;;;;;;3.33;2.00;;;;;;;;;;4973213;28;20428;-69
2022/12/08 01:16:28;;;;;;;7.13;2.73;;;;;;;;;;4990669;28;20479;-69
2022/12/08 01:19:12;;;;;;;4.27;2.60;;;;;;;;;;4978188;28;20435;-69
2022/12/08 01:21:39;;;;;;;4.60;2.70;;;;;;;;;;4993065;28;20423;-69
2022/12/08 01:24:06;;;;;;;5.07;2.70;;;;;;;;;;5010225;28;20423;-69
2022/12/08 01:26:32;;;;;;;3.10;2.23;;;;;;;;;;4992908;28;20438;-68
2022/12/08 01:29:00;;;;;;;5.37;2.73;;;;;;;;;;5029863;28;20513;-69
2022/12/08 01:31:44;;;;;;;4.77;2.20;;;;;;;;;;5033870;28;20931;-69
2022/12/08 01:34:11;;;;;;;3.43;2.47;;;;;;;;;;5031432;28;21062;-69
2022/12/08 01:36:37;;;;;;;4.27;1.97;;;;;;;;;;4993814;28;20965;-70
2022/12/08 01:39:05;;;;;;;4.20;2.57;;;;;;;;;;4993797;28;20798;-69
2022/12/08 01:41:32;;;;;;;3.03;2.10;;;;;;;;;;4976727;28;20433;-69
2022/12/08 01:44:02;;;;;;;5.00;2.87;;;;;;;;;;4976506;28;21002;-69
2022/12/08 01:46:30;;;;;;;2.30;1.70;;;;;;;;;;4993919;28;20438;-69
2022/12/08 01:49:15;;;;;;;3.53;2.13;;;;;;;;;;4976004;28;20541;-69
2022/12/08 01:51:48;;;;;;;5.30;2.37;;;;;;;;;;4993241;28;20478;-69
2022/12/08 01:54:15;;;;;;;4.23;2.37;;;;;;;;;;4993390;28;20443;-69
2022/12/08 01:56:44;;;;;;;2.70;1.57;;;;;;;;;;4976283;28;20827;-69
2022/12/08 01:59:11;;;;;;;3.67;2.20;;;;;;;;;;4976187;28;20510;-69
2022/12/08 02:01:38;;;;;;;2.30;1.57;;;;;;;;;;4976226;28;20443;-69
2022/12/08 02:04:05;;;;;;;3.77;1.87;;;;;;;;;;4993480;28;20443;-68
2022/12/08 02:06:33;;;;;;;2.87;2.00;;;;;;;;;;4993175;28;20504;-69
2022/12/08 02:09:00;;;;;;;3.00;1.53;;;;;;;;;;4992416;28;20475;-69
2022/12/08 02:11:44;;;;;;;3.67;2.10;;;;;;;;;;4962249;28;20435;-69
2022/12/08 02:14:10;;;;;;;3.30;1.77;;;;;;;;;;4975905;28;20458;-69
2022/12/08 02:16:56;;;;;;;3.60;2.50;;;;;;;;;;4978326;28;20822;-69
2022/12/08 02:19:23;;;;;;;3.73;2.27;;;;;;;;;;4976020;28;20784;-69
2022/12/08 02:22:25;;;;;;;2.07;1.13;;;;;;;;;;4993185;28;20456;-69
2022/12/08 02:24:58;;;;;;;2.70;1.80;;;;;;;;;;4975674;28;20478;-69
2022/12/08 02:27:41;;;;;;;3.07;2.23;;;;;;;;;;4993784;28;20453;-69
2022/12/08 02:30:20;;;;;;;3.43;2.10;;;;;;;;;;4998586;28;20920;-69
2022/12/08 02:32:54;;;;;;;3.13;2.33;;;;;;;;;;5032081;28;20438;-69
2022/12/08 02:35:26;;;;;;;3.40;1.93;;;;;;;;;;5032257;28;20437;-69
2022/12/08 02:37:53;;;;;;;2.73;2.13;;;;;;;;;;5014356;28;20446;-69
2022/12/08 02:40:25;;;;;;;3.20;2.27;;;;;;;;;;5031823;28;20425;-69
2022/12/08 02:43:03;;;;;;;3.27;2.50;;;;;;;;;;4996347;28;20452;-69
2022/12/08 02:45:33;;;;;;;3.03;2.00;;;;;;;;;;4975368;28;20436;-69
2022/12/08 02:48:00;;;;;;;3.63;2.07;;;;;;;;;;4975343;28;20468;-69
2022/12/08 02:50:27;;;;;;;4.37;2.70;;;;;;;;;;4974923;28;20487;-69
2022/12/08 02:52:54;;;;;;;3.83;2.30;;;;;;;;;;4975337;28;20444;-69
2022/12/08 02:55:22;;;;;;;4.50;2.33;;;;;;;;;;4974979;28;20932;-69
2022/12/08 02:57:52;;;;;;;4.20;2.10;;;;;;;;;;4992139;28;20455;-69
2022/12/08 03:00:19;;;;;;;1.93;1.47;;;;;;;;;;4992321;28;20494;-69
2022/12/08 03:02:55;;;;;;;3.43;2.00;;;;;;;;;;4992340;28;20470;-69
2022/12/08 03:05:35;;;;;;;3.10;1.90;;;;;;;;;;4992157;28;20527;-69
2022/12/08 03:08:08;;;;;;;3.40;2.10;;;;;;;;;;4992697;28;20432;-69
2022/12/08 03:10:56;;;;;;;3.53;2.00;;;;;;;;;;4958843;28;20480;-69
2022/12/08 03:13:24;;;;;;;2.90;1.80;;;;;;;;;;4958644;28;20444;-68
2022/12/08 03:15:50;;;;;;;2.77;1.87;;;;;;;;;;4974921;28;20455;-68
2022/12/08 03:18:17;;;;;;;2.33;1.67;;;;;;;;;;4974869;28;20439;-68
2022/12/08 03:20:44;;;;;;;1.90;1.37;;;;;;;;;;4974515;28;20490;-67
2022/12/08 03:23:11;;;;;;;2.40;1.77;;;;;;;;;;4974404;28;20440;-68
2022/12/08 03:25:40;;;;;;;2.03;1.43;;;;;;;;;;4991293;28;20897;-71
2022/12/08 03:28:06;;;;;;;2.00;1.60;;;;;;;;;;4998082;28;20438;-67
2022/12/08 03:30:35;;;;;;;2.73;1.60;;;;;;;;;;4983795;28;20479;-68
2022/12/08 03:33:03;;;;;;;2.20;1.57;;;;;;;;;;4990206;28;20486;-68
2022/12/08 03:35:30;;;;;;;2.40;2.00;;;;;;;;;;4993712;28;20521;-67
2022/12/08 03:38:00;;;;;;;1.67;1.50;;;;;;;;;;5011929;28;20442;-68
2022/12/08 03:40:27;;;;;;;2.30;1.80;;;;;;;;;;5011173;28;20431;-68
2022/12/08 03:42:54;;;;;;;3.33;1.90;;;;;;;;;;5011138;28;20965;-69
2022/12/08 03:45:21;;;;;;;1.90;1.70;;;;;;;;;;5011541;28;20435;-69
2022/12/08 03:47:47;;;;;;;2.40;1.70;;;;;;;;;;4989780;28;20443;-69
2022/12/08 03:50:14;;;;;;;3.03;2.00;;;;;;;;;;5011141;28;20492;-69
2022/12/08 03:52:58;;;;;;;2.93;2.00;;;;;;;;;;4995466;28;20438;-69
2022/12/08 03:55:25;;;;;;;3.63;1.80;;;;;;;;;;5011025;28;20526;-69
2022/12/08 03:58:09;;;;;;;2.53;1.70;;;;;;;;;;5011581;28;20485;-69
2022/12/08 04:00:35;;;;;;;2.50;1.23;;;;;;;;;;4993208;28;20518;-68
2022/12/08 04:03:03;;;;;;;2.37;1.90;;;;;;;;;;5011074;28;20443;-69
2022/12/08 04:05:30;;;;;;;4.53;2.57;;;;;;;;;;4991508;28;20448;-69
2022/12/08 04:07:56;;;;;;;2.93;1.97;;;;;;;;;;4999985;28;20455;-69
2022/12/08 04:10:23;;;;;;;1.57;1.20;;;;;;;;;;4975869;28;20553;-69
2022/12/08 04:12:50;;;;;;;1.47;1.20;;;;;;;;;;4993404;28;20454;-69
2022/12/08 04:15:17;;;;;;;1.40;1.17;;;;;;;;;;5010728;28;20469;-69
2022/12/08 04:18:01;;;;;;;2.57;1.50;;;;;;;;;;4993198;28;20422;-69
2022/12/08 04:20:27;;;;;;;1.53;1.13;;;;;;;;;;5009439;28;20442;-69
2022/12/08 04:23:11;;;;;;;1.67;1.30;;;;;;;;;;5010803;28;20430;-69
2022/12/08 04:25:38;;;;;;;1.60;1.33;;;;;;;;;;4993328;28;20454;-69
2022/12/08 04:28:22;;;;;;;1.10;0.93;;;;;;;;;;5024567;28;20418;-69
2022/12/08 04:30:49;;;;;;;1.90;1.17;;;;;;;;;;5012903;28;20497;-69
2022/12/08 04:33:15;;;;;;;2.27;1.40;;;;;;;;;;5029960;28;20433;-69
2022/12/08 04:35:42;;;;;;;1.80;1.20;;;;;;;;;;5013982;28;20857;-69
2022/12/08 04:38:09;;;;;;;1.73;1.50;;;;;;;;;;5010522;28;20946;-69
2022/12/08 04:40:53;;;;;;;1.90;1.50;;;;;;;;;;4995500;28;20770;-68
2022/12/08 04:43:19;;;;;;;1.70;1.20;;;;;;;;;;4993185;28;20865;-69
2022/12/08 04:46:07;;;;;;;1.83;1.53;;;;;;;;;;5010535;28;20411;-68
2022/12/08 04:48:34;;;;;;;2.57;1.70;;;;;;;;;;4993098;28;20435;-69
2022/12/08 04:51:00;;;;;;;1.93;1.37;;;;;;;;;;4962998;28;20546;-68
2022/12/08 04:53:27;;;;;;;2.50;0.90;;;;;;;;;;4990800;28;20431;-69
2022/12/08 04:55:53;;;;;;;1.87;1.30;;;;;;;;;;4990802;28;20491;-69
2022/12/08 04:58:20;;;;;;;3.63;1.50;;;;;;;;;;4973537;28;20456;-69
2022/12/08 05:00:47;;;;;;;2.00;1.00;;;;;;;;;;4973581;28;20510;-69
2022/12/08 05:03:13;;;;;;;3.07;1.57;;;;;;;;;;4992225;28;20486;-69
2022/12/08 05:05:40;;;;;;;2.10;1.30;;;;;;;;;;4977227;28;20416;-69
2022/12/08 05:08:07;;;;;;;2.10;1.67;;;;;;;;;;5006562;28;20458;-69
2022/12/08 05:10:33;;;;;;;1.90;1.50;;;;;;;;;;4996181;28;20562;-69
2022/12/08 05:13:00;;;;;;;1.93;0.90;;;;;;;;;;4996856;28;20435;-69
2022/12/08 05:15:27;;;;;;;1.23;0.90;;;;;;;;;;4996315;28;20467;-68
2022/12/08 05:17:54;;;;;;;2.20;1.00;;;;;;;;;;5013908;28;20439;-68
2022/12/08 05:20:21;;;;;;;1.10;0.80;;;;;;;;;;5013622;28;20463;-69
2022/12/08 05:22:47;;;;;;;2.47;0.90;;;;;;;;;;4994219;28;20856;-68
2022/12/08 05:25:14;;;;;;;3.93;0.80;;;;;;;;;;4994014;28;20427;-69
2022/12/08 05:27:41;;;;;;;1.37;1.13;;;;;;;;;;5010592;28;20525;-68
2022/12/08 05:30:08;;;;;;;1.60;1.00;;;;;;;;;;5033196;28;20457;-69
2022/12/08 05:32:35;;;;;;;2.13;1.33;;;;;;;;;;4999572;28;20429;-69
2022/12/08 05:35:01;;;;;;;1.50;0.90;;;;;;;;;;5033161;28;20469;-68
2022/12/08 05:37:28;;;;;;;1.67;1.03;;;;;;;;;;5033287;28;20427;-69
2022/12/08 05:39:54;;;;;;;1.50;1.00;;;;;;;;;;5022710;28;20443;-69
2022/12/08 05:42:22;;;;;;;1.57;1.10;;;;;;;;;;5013307;28;20431;-69
2022/12/08 05:44:50;;;;;;;5.40;1.60;;;;;;;;;;5013447;28;20439;-69
2022/12/08 05:47:17;;;;;;;3.73;1.00;;;;;;;;;;5013079;28;20427;-69
2022/12/08 05:50:01;;;;;;;1.47;0.90;;;;;;;;;;5010829;28;20562;-68
2022/12/08 05:52:28;;;;;;;3.07;2.00;;;;;;;;;;4994025;28;20939;-69
2022/12/08 05:55:13;;;;;;;3.57;2.20;;;;;;;;;;4978897;28;21308;-68
2022/12/08 05:57:39;;;;;;;3.27;1.90;;;;;;;;;;4993438;28;20851;-69
2022/12/08 06:00:23;;;;;;;4.43;2.43;;;;;;;;;;4993376;28;20416;-69
2022/12/08 06:02:50;;;;;;;2.63;1.20;;;;;;;;;;4993500;28;20460;-68
2022/12/08 06:05:17;;;;;;;2.07;1.47;;;;;;;;;;4992912;28;20532;-69
2022/12/08 06:07:44;;;;;;;3.87;2.00;;;;;;;;;;4992972;28;20487;-69
2022/12/08 06:10:10;;;;;;;3.17;1.70;;;;;;;;;;4993209;28;20851;-69
2022/12/08 06:12:55;;;;;;;3.40;1.40;;;;;;;;;;5004985;28;20505;-69
2022/12/08 06:15:22;;;;;;;3.17;2.00;;;;;;;;;;5012035;28;20459;-69
2022/12/08 06:18:09;;;;;;;4.83;2.30;;;;;;;;;;4981389;28;20419;-70
2022/12/08 06:20:35;;;;;;;3.87;2.10;;;;;;;;;;4995013;28;20482;-69
2022/12/08 06:23:02;;;;;;;2.10;1.27;;;;;;;;;;5012417;28;20438;-69
2022/12/08 06:25:28;;;;;;;3.87;2.03;;;;;;;;;;5012704;28;20431;-69
2022/12/08 06:27:55;;;;;;;4.23;2.20;;;;;;;;;;5022659;28;20528;-69
2022/12/08 06:30:22;;;;;;;3.97;2.07;;;;;;;;;;5006251;28;20995;-69
2022/12/08 06:32:49;;;;;;;3.20;2.20;;;;;;;;;;4992759;28;20439;-69
2022/12/08 06:35:16;;;;;;;3.50;2.00;;;;;;;;;;4992709;28;20459;-70
2022/12/08 06:38:00;;;;;;;2.90;2.00;;;;;;;;;;4978159;28;20776;-69
2022/12/08 06:40:26;;;;;;;2.53;1.77;;;;;;;;;;4992741;28;20452;-69
2022/12/08 06:43:10;;;;;;;2.07;1.50;;;;;;;;;;4992721;28;20420;-69
2022/12/08 06:45:39;;;;;;;4.00;2.20;;;;;;;;;;4992442;28;20987;-69
2022/12/08 06:48:23;;;;;;;6.10;2.57;;;;;;;;;;4977743;28;20570;-70
2022/12/08 06:50:50;;;;;;;5.00;2.67;;;;;;;;;;4974892;28;20498;-70
2022/12/08 06:53:34;;;;;;;3.13;1.57;;;;;;;;;;4992622;28;20478;-69
2022/12/08 06:56:01;;;;;;;5.33;2.17;;;;;;;;;;4958805;28;20487;-69
2022/12/08 06:58:27;;;;;;;4.77;1.87;;;;;;;;;;4974825;28;20455;-69
2022/12/08 07:00:54;;;;;;;3.90;2.10;;;;;;;;;;4974911;28;20467;-69
2022/12/08 07:03:21;;;;;;;4.53;1.83;;;;;;;;;;4992067;28;20458;-70
2022/12/08 07:05:47;;;;;;;5.40;2.40;;;;;;;;;;4992214;28;20490;-70
2022/12/08 07:08:14;;;;;;;2.63;1.13;;;;;;;;;;4974803;28;20444;-70
2022/12/08 07:10:41;;;;;;;4.43;2.33;;;;;;;;;;4992271;28;20519;-70
2022/12/08 07:13:25;;;;;;;4.33;1.93;;;;;;;;;;4974869;28;20836;-70
2022/12/08 07:15:52;;;;;;;3.73;2.40;;;;;;;;;;4974964;28;20424;-70
2022/12/08 07:18:18;;;;;;;6.67;2.10;;;;;;;;;;4984650;28;20535;-70
2022/12/08 07:20:45;;;;;;;4.27;2.30;;;;;;;;;;4992233;28;20436;-70
2022/12/08 07:23:12;;;;;;;6.80;2.30;;;;;;;;;;4991900;28;20788;-70
2022/12/08 07:25:38;;;;;;;3.83;1.63;;;;;;;;;;4974444;28;20444;-70
2022/12/08 07:28:09;;;;;;;1.83;1.13;;;;;;;;;;5010001;28;20803;-70
2022/12/08 07:30:35;;;;;;;4.90;1.97;;;;;;;;;;5011355;28;20463;-70
2022/12/08 07:33:03;;;;;;;2.83;1.07;;;;;;;;;;4994100;28;20427;-70
2022/12/08 07:35:30;;;;;;;3.77;2.27;;;;;;;;;;4996177;28;20454;-70
2022/12/08 07:38:00;;;;;;;1.90;1.17;;;;;;;;;;4974798;28;20432;-70
2022/12/08 07:40:44;;;;;;;3.30;1.93;;;;;;;;;;4960679;28;21066;-69
2022/12/08 07:43:10;;;;;;;4.57;1.73;;;;;;;;;;4974116;28;20827;-70
2022/12/08 07:45:55;;;;;;;2.87;1.23;;;;;;;;;;4976651;28;20416;-70
2022/12/08 07:48:22;;;;;;;2.97;1.63;;;;;;;;;;4974114;28;20428;-70
2022/12/08 07:50:48;;;;;;;3.47;2.00;;;;;;;;;;4991227;28;20479;-70
2022/12/08 07:53:15;;;;;;;5.50;2.43;;;;;;;;;;4973972;28;20571;-70
2022/12/08 07:55:42;;;;;;;4.73;2.30;;;;;;;;;;4991197;28;20994;-70
2022/12/08 07:58:08;;;;;;;6.27;2.67;;;;;;;;;;4991242;28;20428;-70
2022/12/08 08:00:35;;;;;;;6.37;2.43;;;;;;;;;;4974115;28;20918;-70
2022/12/08 08:03:02;;;;;;;7.60;3.30;;;;;;;;;;4973834;28;20459;-70
2022/12/08 08:05:29;;;;;;;4.30;2.30;;;;;;;;;;4991406;28;20465;-69
2022/12/08 08:07:55;;;;;;;8.90;3.00;;;;;;;;;;4973684;28;20412;-70
2022/12/08 08:10:23;;;;;;;5.70;3.17;;;;;;;;;;4991377;28;20602;-70
2022/12/08 08:12:49;;;;;;;5.27;2.43;;;;;;;;;;4994431;28;20450;-70
2022/12/08 08:15:18;;;;;;;3.93;2.60;;;;;;;;;;5010869;28;20439;-69
2022/12/08 08:17:44;;;;;;;2.90;1.67;;;;;;;;;;4993376;28;20934;-70
2022/12/08 08:20:11;;;;;;;5.20;3.10;;;;;;;;;;4993352;28;20442;-70
2022/12/08 08:22:38;;;;;;;6.23;3.50;;;;;;;;;;4993179;28;20489;-70
2022/12/08 08:25:04;;;;;;;3.50;2.33;;;;;;;;;;5010750;28;20434;-70
2022/12/08 08:27:31;;;;;;;4.73;2.47;;;;;;;;;;5000079;28;20848;-69
2022/12/08 08:29:58;;;;;;;8.33;3.80;;;;;;;;;;5012348;28;20450;-70
2022/12/08 08:32:24;;;;;;;5.70;2.43;;;;;;;;;;5030273;28;20461;-70
2022/12/08 08:35:09;;;;;;;7.27;2.37;;;;;;;;;;5015407;28;20422;-69
2022/12/08 08:37:35;;;;;;;6.70;2.80;;;;;;;;;;5006293;28;21025;-70
2022/12/08 08:40:20;;;;;;;5.60;2.07;;;;;;;;;;4995056;28;20431;-70
2022/12/08 08:42:47;;;;;;;6.50;2.77;;;;;;;;;;4977475;28;20438;-70
2022/12/08 08:45:31;;;;;;;4.77;3.03;;;;;;;;;;4993681;28;20424;-70
2022/12/08 08:47:58;;;;;;;5.57;2.83;;;;;;;;;;4994625;28;20935;-70
2022/12/08 08:50:26;;;;;;;7.77;3.63;;;;;;;;;;4961614;28;20900;-70
2022/12/08 08:52:58;;;;;;;9.40;2.87;;;;;;;;;;4977911;28;20451;-70
2022/12/08 08:55:24;;;;;;;4.90;2.73;;;;;;;;;;4994907;28;20462;-70
2022/12/08 08:57:51;;;;;;;9.53;3.43;;;;;;;;;;4994695;28;20938;-70
2022/12/08 09:00:18;;;;;;;6.47;3.63;;;;;;;;;;4993414;28;20431;-70
2022/12/08 09:02:45;;;;;;;7.33;3.07;;;;;;;;;;4961123;28;20823;-70
2022/12/08 09:05:12;;;;;;;4.67;3.27;;;;;;;;;;4977309;28;20440;-70
2022/12/08 09:07:39;;;;;;;6.23;3.20;;;;;;;;;;4994538;28;20436;-70
2022/12/08 09:10:06;;;;;;;5.23;2.77;;;;;;;;;;4993930;28;20991;-70
2022/12/08 09:12:33;;;;;;;5.23;3.20;;;;;;;;;;4994066;28;20550;-71
2022/12/08 09:15:00;;;;;;;5.67;3.57;;;;;;;;;;4994496;28;20435;-70
2022/12/08 09:17:27;;;;;;;6.73;3.90;;;;;;;;;;4994645;28;20440;-70
2022/12/08 09:19:53;;;;;;;7.03;3.77;;;;;;;;;;4993946;28;20431;-71
2022/12/08 09:22:20;;;;;;;9.73;4.10;;;;;;;;;;4976988;28;20976;-70
2022/12/08 09:25:05;;;;;;;6.57;4.03;;;;;;;;;;4979261;28;20757;-70
2022/12/08 09:27:32;;;;;;;7.57;3.33;;;;;;;;;;5007886;28;20491;-70
2022/12/08 09:30:17;;;;;;;5.53;3.23;;;;;;;;;;5033147;28;20430;-70
2022/12/08 09:32:43;;;;;;;9.47;4.87;;;;;;;;;;5032987;28;20840;-70
2022/12/08 09:35:28;;;;;;;9.10;4.70;;;;;;;;;;5033450;28;20414;-70
2022/12/08 09:37:55;;;;;;;10.70;3.63;;;;;;;;;;5033107;28;20929;-70
2022/12/08 09:40:22;;;;;;;9.60;5.07;;;;;;;;;;5015656;28;20972;-70
2022/12/08 09:42:58;;;;;;;12.33;5.97;;;;;;;;;;5010489;28;21015;-71
2022/12/08 09:45:42;;;;;;;15.43;5.13;;;;;;;;;;4995438;28;20435;-70
2022/12/08 09:48:10;;;;;;;18.33;5.67;;;;;;;;;;5013441;28;20481;-70
2022/12/08 09:50:51;;;;;;;15.93;6.77;;;;;;;;;;4994216;28;20555;-70
2022/12/08 09:53:19;;;;;;;8.63;4.63;;;;;;;;;;5013012;28;20435;-70
2022/12/08 09:55:59;;;;;;;12.13;6.23;;;;;;;;;;4995925;28;20473;-71
2022/12/08 09:58:36;;;;;;;14.10;6.30;;;;;;;;;;4995970;28;20419;-70
2022/12/08 10:01:20;;;;;;;13.73;6.33;;;;;;;;;;5012214;28;20427;-70
2022/12/08 10:03:47;;;;;;;12.30;5.57;;;;;;;;;;4995436;28;20526;-70
2022/12/08 10:06:32;;;;;;;14.87;6.00;;;;;;;;;;5012934;28;20431;-70
2022/12/08 10:09:05;;;;;;;9.00;4.47;;;;;;;;;;5013016;28;20438;-70
2022/12/08 10:11:39;;;;;;;16.23;6.13;;;;;;;;;;5012783;28;20474;-71
2022/12/08 10:14:16;;;;;;;16.90;7.93;;;;;;;;;;4995443;28;20431;-70
2022/12/08 10:17:02;;;;;;;11.30;5.83;;;;;;;;;;4993165;28;20416;-71
2022/12/08 10:19:29;;;;;;;10.93;4.37;;;;;;;;;;4975959;28;20427;-70
2022/12/08 10:21:56;;;;;;;10.13;5.50;;;;;;;;;;4975807;28;20527;-70
2022/12/08 10:24:22;;;;;;;11.73;4.60;;;;;;;;;;4975659;28;20901;-71
2022/12/08 10:26:49;;;;;;;9.00;3.83;;;;;;;;;;4995197;28;20436;-70
2022/12/08 10:29:33;;;;;;;11.23;5.13;;;;;;;;;;5014410;28;20489;-70
2022/12/08 10:32:01;;;;;;;8.23;3.73;;;;;;;;;;5010913;28;20482;-71
2022/12/08 10:34:27;;;;;;;9.57;5.00;;;;;;;;;;5012573;28;20428;-71
2022/12/08 10:36:57;;;;;;;10.20;5.60;;;;;;;;;;4994908;28;20439;-70
2022/12/08 10:39:31;;;;;;;12.23;5.33;;;;;;;;;;4994995;28;20431;-71
2022/12/08 10:42:17;;;;;;;9.47;4.93;;;;;;;;;;4994871;28;20442;-70
2022/12/08 10:44:56;;;;;;;6.97;3.50;;;;;;;;;;4994884;28;20794;-70
2022/12/08 10:47:24;;;;;;;12.23;5.30;;;;;;;;;;4995278;28;20526;-70
2022/12/08 10:50:09;;;;;;;10.10;4.83;;;;;;;;;;4980165;28;20479;-70
2022/12/08 10:52:37;;;;;;;9.87;5.03;;;;;;;;;;4992367;28;20835;-71
2022/12/08 10:55:12;;;;;;;10.93;4.40;;;;;;;;;;4992626;28;20947;-71
2022/12/08 10:57:38;;;;;;;12.30;5.17;;;;;;;;;;4974942;28;20958;-70
2022/12/08 11:00:05;;;;;;;11.40;5.10;;;;;;;;;;4992414;28;20428;-71
2022/12/08 11:02:50;;;;;;;11.57;5.97;;;;;;;;;;4976022;28;20519;-71
2022/12/08 11:05:16;;;;;;;10.87;5.50;;;;;;;;;;4974760;28;20432;-71
2022/12/08 11:07:47;;;;;;;7.47;3.80;;;;;;;;;;4958494;28;20444;-70
2022/12/08 11:10:16;;;;;;;11.10;6.27;;;;;;;;;;4974863;28;20424;-70
2022/12/08 11:12:42;;;;;;;12.63;5.20;;;;;;;;;;4974947;28;20470;-70
2022/12/08 11:15:13;;;;;;;9.30;5.27;;;;;;;;;;4974885;28;20440;-71
2022/12/08 11:17:40;;;;;;;10.60;5.70;;;;;;;;;;4974837;28;20428;-71
2022/12/08 11:20:09;;;;;;;11.60;5.37;;;;;;;;;;4991974;28;20428;-70
2022/12/08 11:22:36;;;;;;;11.37;5.63;;;;;;;;;;4991834;28;20856;-71
2022/12/08 11:25:06;;;;;;;11.73;5.40;;;;;;;;;;4991321;28;20890;-71
2022/12/08 11:27:33;;;;;;;11.83;6.70;;;;;;;;;;5005915;28;20988;-71
2022/12/08 11:30:00;;;;;;;11.17;6.03;;;;;;;;;;5013855;28;21016;-71
2022/12/08 11:32:26;;;;;;;10.27;5.23;;;;;;;;;;5013534;28;20496;-70
2022/12/08 11:35:01;;;;;;;9.83;5.87;;;;;;;;;;5013245;28;21364;-71
2022/12/08 11:37:29;;;;;;;11.87;4.93;;;;;;;;;;5031094;28;20522;-70
2022/12/08 11:40:02;;;;;;;5.70;2.87;;;;;;;;;;5014127;28;20492;-70
2022/12/08 11:42:31;;;;;;;9.20;5.00;;;;;;;;;;5002032;28;20476;-70
2022/12/08 11:44:58;;;;;;;8.77;5.10;;;;;;;;;;4974219;28;20428;-70
2022/12/08 11:47:26;;;;;;;10.43;5.43;;;;;;;;;;4958550;28;20931;-70
2022/12/08 11:49:55;;;;;;;8.93;5.27;;;;;;;;;;4974016;28;21126;-70
2022/12/08 11:52:26;;;;;;;7.87;4.37;;;;;;;;;;4957893;28;20476;-70
2022/12/08 11:55:12;;;;;;;9.50;4.47;;;;;;;;;;4974207;28;20447;-70
2022/12/08 11:57:39;;;;;;;10.07;4.97;;;;;;;;;;4990891;28;20502;-71
2022/12/08 12:00:06;;;;;;;10.23;5.10;;;;;;;;;;4991400;28;20428;-70
2022/12/08 12:02:41;;;;;;;9.90;5.10;;;;;;;;;;4974534;28;20440;-70
2022/12/08 12:05:09;;;;;;;7.13;4.47;;;;;;;;;;4974688;28;20432;-70
2022/12/08 12:07:42;;;;;;;7.47;4.53;;;;;;;;;;4973752;28;20983;-70
2022/12/08 12:10:17;;;;;;;8.90;4.83;;;;;;;;;;4989904;28;20440;-70
2022/12/08 12:13:02;;;;;;;10.30;5.00;;;;;;;;;;4990545;28;20475;-70
2022/12/08 12:15:44;;;;;;;8.03;5.03;;;;;;;;;;4999078;28;20478;-70
2022/12/08 12:18:10;;;;;;;13.10;5.50;;;;;;;;;;4993525;28;20443;-70
2022/12/08 12:20:52;;;;;;;9.63;5.83;;;;;;;;;;5010778;28;20455;-70
2022/12/08 12:23:23;;;;;;;7.43;5.07;;;;;;;;;;4977156;28;20431;-70
2022/12/08 12:25:54;;;;;;;9.07;5.10;;;;;;;;;;4993425;28;20462;-70
2022/12/08 12:28:21;;;;;;;9.27;5.30;;;;;;;;;;5006861;28;20434;-71
2022/12/08 12:31:03;;;;;;;9.17;5.50;;;;;;;;;;5030394;28;20436;-70
2022/12/08 12:33:30;;;;;;;8.27;4.30;;;;;;;;;;5016467;28;20478;-70
2022/12/08 12:35:57;;;;;;;7.83;4.20;;;;;;;;;;4992749;28;20551;-70
2022/12/08 12:41:10;;;;;;;9.50;4.70;;;;;;;;;;4995997;28;20790;-70
2022/12/08 12:43:37;;;;;;;9.53;4.93;;;;;;;;;;5010258;28;20486;-70
2022/12/08 12:46:22;;;;;;;8.70;4.70;;;;;;;;;;4993069;28;20435;-70
2022/12/08 12:48:49;;;;;;;9.73;5.10;;;;;;;;;;4993247;28;20441;-70
2022/12/08 12:51:31;;;;;;;10.00;5.30;;;;;;;;;;4994894;28;20472;-70
2022/12/08 12:54:18;;;;;;;11.07;5.47;;;;;;;;;;4990878;28;20471;-70
2022/12/08 12:56:45;;;;;;;13.17;6.93;;;;;;;;;;4990663;28;20436;-71
2022/12/08 12:59:27;;;;;;;13.73;7.63;;;;;;;;;;4990826;28;20463;-70
2022/12/08 13:01:54;;;;;;;12.13;6.93;;;;;;;;;;4990538;28;20439;-71
2022/12/08 13:04:28;;;;;;;14.37;7.83;;;;;;;;;;4991094;28;20428;-70
2022/12/08 13:06:54;;;;;;;11.23;6.50;;;;;;;;;;4973438;28;20436;-71
2022/12/08 13:09:31;;;;;;;17.53;7.23;;;;;;;;;;4989510;28;20842;-71
2022/12/08 13:12:10;;;;;;;12.80;7.13;;;;;;;;;;5010128;28;20462;-71
2022/12/08 13:14:44;;;;;;;12.83;7.90;;;;;;;;;;5010282;28;20441;-71
2022/12/08 13:17:11;;;;;;;12.17;7.13;;;;;;;;;;4992980;28;20427;-70
2022/12/08 13:19:38;;;;;;;12.57;8.27;;;;;;;;;;4992986;28;20509;-71
2022/12/08 13:22:24;;;;;;;16.07;7.83;;;;;;;;;;4992923;28;20795;-70
2022/12/08 13:24:51;;;;;;;13.83;8.23;;;;;;;;;;5011445;28;20446;-71
2022/12/08 13:27:27;;;;;;;15.33;8.07;;;;;;;;;;5001004;28;20458;-70
2022/12/08 13:30:12;;;;;;;15.70;8.03;;;;;;;;;;5016049;28;20532;-71
2022/12/08 13:33:08;;;;;;;17.13;8.13;;;;;;;;;;5033373;28;20482;-71
2022/12/08 13:35:59;;;;;;;12.93;7.50;;;;;;;;;;5026160;28;20430;-73
2022/12/08 13:38:27;;;;;;;12.50;7.13;;;;;;;;;;4999581;28;20446;-70
2022/12/08 13:40:53;;;;;;;15.57;6.73;;;;;;;;;;5015645;28;20500;-71
2022/12/08 13:43:39;;;;;;;11.73;6.83;;;;;;;;;;5015520;28;20441;-71
2022/12/08 13:46:43;;;;;;;14.73;7.90;;;;;;;;;;5030028;28;20966;-71
2022/12/08 13:49:34;;;;;;;13.53;7.87;;;;;;;;;;4998793;28;20427;-70
2022/12/08 13:52:28;;;;;;;15.00;8.33;;;;;;;;;;5013041;28;20526;-71
2022/12/08 13:55:28;;;;;;;14.10;8.97;;;;;;;;;;4985200;28;20486;-71
2022/12/08 13:58:26;;;;;;;15.30;8.43;;;;;;;;;;4998492;28;20518;-70
2022/12/08 14:01:01;;;;;;;15.53;8.83;;;;;;;;;;5013081;28;20802;-71
2022/12/08 14:03:28;;;;;;;15.73;8.83;;;;;;;;;;4980015;28;20455;-71
2022/12/08 14:05:55;;;;;;;15.90;9.20;;;;;;;;;;4976079;28;20936;-71
2022/12/08 14:08:38;;;;;;;11.47;6.97;;;;;;;;;;4964581;28;20412;-70
2022/12/08 14:11:32;;;;;;;11.33;6.87;;;;;;;;;;4993210;28;20431;-70
2022/12/08 14:14:00;;;;;;;10.63;6.80;;;;;;;;;;4992019;28;20451;-71
2022/12/08 14:16:27;;;;;;;13.23;6.83;;;;;;;;;;4975256;28;20467;-71
2022/12/08 14:18:54;;;;;;;13.27;7.07;;;;;;;;;;4992441;28;20432;-71
2022/12/08 14:21:21;;;;;;;12.77;7.27;;;;;;;;;;4975684;28;21118;-71
2022/12/08 14:24:05;;;;;;;20.33;9.87;;;;;;;;;;4993147;28;20515;-71
2022/12/08 14:26:33;;;;;;;10.93;6.83;;;;;;;;;;4975411;28;20452;-70
2022/12/08 14:29:43;;;;;;;11.50;6.13;;;;;;;;;;4997452;28;20423;-71
2022/12/08 14:32:18;;;;;;;11.60;6.10;;;;;;;;;;5007813;28;20481;-70
2022/12/08 14:35:05;;;;;;;11.20;6.87;;;;;;;;;;5012458;28;20430;-70
2022/12/08 14:37:36;;;;;;;11.13;7.13;;;;;;;;;;4993815;28;20451;-70
2022/12/08 14:40:05;;;;;;;11.57;7.00;;;;;;;;;;4994984;28;20878;-70
2022/12/08 14:42:40;;;;;;;17.73;9.90;;;;;;;;;;5009875;28;20435;-70
2022/12/08 14:45:25;;;;;;;17.60;9.10;;;;;;;;;;4985683;28;20786;-70
2022/12/08 14:47:51;;;;;;;17.53;9.70;;;;;;;;;;5012481;28;20966;-71
2022/12/08 14:50:38;;;;;;;13.97;8.37;;;;;;;;;;5012498;28;20573;-71
2022/12/08 14:53:09;;;;;;;14.23;7.80;;;;;;;;;;4995036;28;20475;-71
2022/12/08 14:55:36;;;;;;;14.90;8.73;;;;;;;;;;5011862;28;20913;-71
2022/12/08 14:58:03;;;;;;;18.07;11.10;;;;;;;;;;4994810;28;20447;-71
2022/12/08 15:00:30;;;;;;;18.53;11.50;;;;;;;;;;5012197;28;20497;-71
2022/12/08 15:02:56;;;;;;;18.57;10.83;;;;;;;;;;4995108;28;20423;-71
2022/12/08 15:05:25;;;;;;;18.13;11.23;;;;;;;;;;4995199;28;20522;-71
2022/12/08 15:07:53;;;;;;;15.20;9.97;;;;;;;;;;4994340;28;20931;-71
2022/12/08 15:10:39;;;;;;;17.63;11.20;;;;;;;;;;4995252;28;20478;-71
2022/12/08 15:13:09;;;;;;;18.80;11.40;;;;;;;;;;5011733;28;20874;-71